Time;durP1;ratioP1;P1;durP2;ratioP2;P2;SDS_P1;SDS_P2;PMS_P1;PMS_P2;Temp;Humidity;BMP_temperature;BMP_pressure;BME280_temperature;BME280_humidity;BME280_pressure;Samples;Min_cycle;Max_cycle;Signal;HPM_P1;HPM_P2
2023/01/03 00:01:33;;;;;;;9.63;5.30;;;6.00;99.90;;;;;;6275778;22;20010;-78
2023/01/03 00:03:59;;;;;;;9.27;5.63;;;5.90;99.90;;;;;;6302484;22;20003;-78
2023/01/03 00:06:27;;;;;;;9.13;5.82;;;6.00;99.90;;;;;;6250118;22;20015;-78
2023/01/03 00:08:55;;;;;;;9.77;5.75;;;6.00;99.90;;;;;;6275334;22;20454;-78
2023/01/03 00:12:22;;;;;;;9.10;6.28;;;6.00;99.90;;;;;;6250718;22;20015;-78
2023/01/03 00:14:11;;;;;;;10.95;5.75;;;6.00;99.90;;;;;;6274886;22;20018;-78
2023/01/03 00:16:37;;;;;;;8.20;5.55;;;6.10;99.90;;;;;;6250025;22;20010;-78
2023/01/03 00:19:12;;;;;;;9.23;6.13;;;6.10;99.90;;;;;;6249410;22;20313;-78
2023/01/03 00:21:39;;;;;;;8.20;5.82;;;6.00;99.90;;;;;;6275840;22;20010;-78
2023/01/03 00:24:06;;;;;;;7.70;5.20;;;6.00;99.90;;;;;;6303633;22;20035;-78
2023/01/03 00:26:32;;;;;;;8.70;5.93;;;6.00;99.90;;;;;;6275829;22;20505;-78
2023/01/03 00:28:58;;;;;;;8.15;4.38;;;6.00;99.90;;;;;;6302816;22;20000;-78
2023/01/03 00:31:24;;;;;;;9.00;6.32;;;6.00;99.90;;;;;;6302283;22;20019;-78
2023/01/03 00:33:50;;;;;;;9.95;6.45;;;6.10;99.90;;;;;;6275468;22;20064;-77
2023/01/03 00:36:16;;;;;;;9.63;6.28;;;6.10;99.90;;;;;;6275230;22;20007;-78
2023/01/03 00:38:41;;;;;;;9.93;6.53;;;6.00;99.90;;;;;;6275884;22;20006;-78
2023/01/03 00:41:18;;;;;;;10.30;6.85;;;6.00;99.90;;;;;;6303391;22;20091;-78
2023/01/03 00:43:47;;;;;;;9.00;5.82;;;5.90;99.90;;;;;;6303242;22;20014;-78
2023/01/03 00:46:14;;;;;;;9.32;5.28;;;5.90;99.90;;;;;;6249844;22;20007;-78
2023/01/03 00:48:40;;;;;;;8.10;5.03;;;5.90;99.90;;;;;;6302866;22;20007;-77
2023/01/03 00:51:11;;;;;;;7.90;4.40;;;5.80;99.90;;;;;;6275156;22;20067;-78
2023/01/03 00:53:38;;;;;;;9.35;5.28;;;5.60;99.90;;;;;;6274961;22;20015;-78
2023/01/03 00:56:09;;;;;;;7.38;4.20;;;5.60;99.90;;;;;;6275380;22;20007;-78
2023/01/03 00:58:35;;;;;;;7.15;4.03;;;5.60;99.90;;;;;;6302712;22;20007;-78
2023/01/03 01:01:24;;;;;;;7.18;4.32;;;5.50;99.90;;;;;;6302843;22;20011;-78
2023/01/03 01:03:52;;;;;;;6.30;4.00;;;5.50;99.90;;;;;;6249614;22;20017;-78
2023/01/03 01:06:21;;;;;;;6.32;4.03;;;5.50;99.90;;;;;;6250048;22;20061;-78
2023/01/03 01:08:49;;;;;;;6.20;4.40;;;5.50;99.90;;;;;;6275099;22;20007;-78
2023/01/03 01:11:15;;;;;;;7.72;4.40;;;5.40;99.90;;;;;;6249382;22;20011;-78
2023/01/03 01:13:43;;;;;;;6.45;3.80;;;5.40;99.90;;;;;;6274897;22;20026;-78
2023/01/03 01:16:15;;;;;;;5.80;4.07;;;5.40;99.90;;;;;;6248502;22;20004;-78
2023/01/03 01:18:42;;;;;;;6.38;4.60;;;5.40;99.90;;;;;;6275286;22;19999;-78
2023/01/03 01:21:11;;;;;;;7.60;4.25;;;5.30;99.90;;;;;;6302137;22;20004;-78
2023/01/03 01:23:38;;;;;;;5.90;3.85;;;5.30;99.90;;;;;;6249341;22;20015;-78
2023/01/03 01:26:06;;;;;;;7.88;4.38;;;5.20;99.90;;;;;;6275116;22;20032;-78
2023/01/03 01:28:32;;;;;;;6.22;4.32;;;5.30;99.90;;;;;;6249573;22;20007;-78
2023/01/03 01:30:59;;;;;;;7.78;4.13;;;5.30;99.90;;;;;;6248762;22;20042;-78
2023/01/03 01:33:25;;;;;;;6.18;3.97;;;5.20;99.90;;;;;;6275423;22;20007;-78
2023/01/03 01:35:50;;;;;;;6.15;4.18;;;5.20;99.90;;;;;;6274326;22;20438;-78
2023/01/03 01:38:16;;;;;;;7.95;4.88;;;5.20;99.90;;;;;;6275130;22;20007;-78
2023/01/03 01:40:42;;;;;;;6.90;4.43;;;5.20;99.90;;;;;;6274984;22;20007;-78
2023/01/03 01:46:15;;;;;;;7.88;4.88;;;5.00;99.90;;;;;;6301831;22;20011;-78
2023/01/03 01:48:40;;;;;;;7.97;5.15;;;5.00;99.90;;;;;;6274835;22;20018;-78
2023/01/03 01:51:08;;;;;;;7.40;5.10;;;4.90;99.90;;;;;;6300651;22;20007;-78
2023/01/03 01:53:35;;;;;;;7.00;4.80;;;4.90;99.90;;;;;;6248952;22;20007;-78
2023/01/03 01:56:12;;;;;;;8.07;5.53;;;4.80;99.90;;;;;;6274780;22;20496;-78
2023/01/03 01:58:40;;;;;;;7.28;5.22;;;4.80;99.90;;;;;;6249583;22;20007;-78
2023/01/03 02:01:09;;;;;;;9.20;6.03;;;4.80;99.90;;;;;;6300366;22;20007;-78
2023/01/03 02:03:35;;;;;;;8.30;5.18;;;4.70;99.90;;;;;;6275034;22;20011;-78
2023/01/03 02:06:05;;;;;;;8.43;5.65;;;4.70;99.90;;;;;;6274717;22;20007;-78
2023/01/03 02:08:30;;;;;;;8.63;5.97;;;4.70;99.90;;;;;;6274509;22;20003;-77
2023/01/03 02:11:06;;;;;;;8.48;5.47;;;4.70;99.90;;;;;;6274826;22;20058;-78
2023/01/03 02:13:56;;;;;;;9.77;5.97;;;4.70;99.90;;;;;;6248437;22;20399;-78
2023/01/03 02:16:47;;;;;;;9.93;6.53;;;4.60;99.90;;;;;;6302617;22;20448;-78
2023/01/03 02:19:44;;;;;;;11.75;6.10;;;4.60;99.90;;;;;;6249381;22;20035;-78
2023/01/03 02:22:46;;;;;;;11.13;5.63;;;4.60;99.90;;;;;;6302864;22;20074;-78
2023/01/03 02:25:18;;;;;;;7.43;4.82;;;4.60;99.90;;;;;;6274342;22;20008;-78
2023/01/03 02:28:31;;;;;;;8.82;5.63;;;4.40;99.90;;;;;;6302500;22;20018;-78
2023/01/03 02:31:05;;;;;;;8.63;5.55;;;4.30;99.90;;;;;;6127369;23;20017;-79
2023/01/03 02:33:40;;;;;;;9.07;5.65;;;4.40;99.90;;;;;;6177279;23;20015;-78
2023/01/03 02:36:45;;;;;;;8.75;6.35;;;4.50;99.90;;;;;;6152580;23;20063;-78
2023/01/03 02:39:20;;;;;;;7.90;5.53;;;4.60;99.90;;;;;;6171630;23;20345;-78
2023/01/03 02:42:56;;;;;;;11.25;7.07;;;4.80;99.90;;;;;;6177425;23;20020;-77
2023/01/03 02:44:49;;;;;;;12.05;7.97;;;5.00;99.90;;;;;;6176964;23;20331;-78
2023/01/03 02:47:21;;;;;;;12.23;8.13;;;5.00;99.90;;;;;;6152575;23;20465;-77
2023/01/03 02:49:51;;;;;;;11.27;7.72;;;5.10;99.90;;;;;;6152527;23;20005;-77
2023/01/03 02:52:25;;;;;;;12.27;8.77;;;5.30;99.90;;;;;;6152433;23;20017;-78
2023/01/03 02:55:11;;;;;;;13.55;9.90;;;5.30;99.90;;;;;;6177686;23;20390;-77
2023/01/03 02:57:43;;;;;;;15.45;10.75;;;5.40;99.90;;;;;;6153964;23;20474;-78
2023/01/03 03:00:13;;;;;;;16.20;10.30;;;5.50;99.90;;;;;;6153268;23;20016;-78
2023/01/03 03:02:43;;;;;;;16.40;10.23;;;5.50;99.90;;;;;;6154469;23;20105;-77
2023/01/03 03:05:14;;;;;;;16.05;10.88;;;5.50;99.90;;;;;;6179001;23;20009;-77
2023/01/03 03:07:39;;;;;;;16.27;10.95;;;5.40;99.90;;;;;;6258013;22;20013;-78
2023/01/03 03:13:12;;;;;;;17.38;10.75;;;5.10;99.90;;;;;;6276080;22;20125;-77
2023/01/03 03:15:55;;;;;;;14.32;10.30;;;5.00;99.90;;;;;;6250876;22;20006;-78
2023/01/03 03:18:29;;;;;;;16.20;9.73;;;5.00;99.90;;;;;;6276776;22;20086;-78
2023/01/03 03:26:39;;;;;;;15.05;9.40;;;4.80;99.90;;;;;;6303297;22;20011;-78
2023/01/03 03:29:11;;;;;;;15.13;9.88;;;4.80;99.90;;;;;;6276114;22;20003;-78
2023/01/03 03:31:44;;;;;;;15.77;9.50;;;4.90;99.90;;;;;;6276002;22;20448;-78
2023/01/03 03:34:30;;;;;;;16.40;10.15;;;4.90;99.90;;;;;;6303552;22;20003;-78
2023/01/03 03:37:18;;;;;;;18.27;9.73;;;5.00;99.90;;;;;;6250981;22;20022;-78
2023/01/03 03:45:31;;;;;;;15.75;10.00;;;5.00;99.90;;;;;;6276176;22;20343;-78
2023/01/03 03:48:10;;;;;;;18.67;11.90;;;5.00;99.90;;;;;;6303545;22;20037;-78
2023/01/03 03:50:50;;;;;;;18.52;11.00;;;5.10;99.90;;;;;;6303616;22;20023;-77
2023/01/03 03:53:20;;;;;;;19.35;11.65;;;5.00;99.90;;;;;;6303501;22;20044;-78
2023/01/03 03:55:50;;;;;;;15.70;10.60;;;5.10;99.90;;;;;;6249840;22;20007;-78
2023/01/03 03:58:30;;;;;;;18.65;12.50;;;5.10;99.90;;;;;;6276093;22;20081;-78
2023/01/03 04:00:57;;;;;;;17.42;10.35;;;5.20;99.90;;;;;;6275251;22;20018;-78
2023/01/03 04:03:24;;;;;;;22.15;13.00;;;5.20;99.90;;;;;;6276133;22;20011;-78
2023/01/03 04:05:56;;;;;;;20.38;12.52;;;5.30;99.90;;;;;;6302609;22;20003;-78
2023/01/03 04:08:21;;;;;;;21.02;12.77;;;5.30;99.90;;;;;;6250214;22;20072;-78
2023/01/03 04:10:47;;;;;;;17.30;11.50;;;5.30;99.90;;;;;;6274635;22;20015;-78
2023/01/03 04:13:13;;;;;;;17.50;11.20;;;5.30;99.90;;;;;;6302429;22;20105;-77
2023/01/03 04:15:39;;;;;;;12.10;7.78;;;5.30;99.90;;;;;;6275947;22;20015;-78
2023/01/03 04:18:04;;;;;;;15.30;9.32;;;5.20;99.90;;;;;;6275416;22;20004;-77
2023/01/03 04:20:30;;;;;;;12.93;9.07;;;5.10;99.90;;;;;;6302849;22;20007;-78
2023/01/03 04:22:56;;;;;;;13.80;8.35;;;5.00;99.90;;;;;;6275281;22;20078;-78
2023/01/03 04:25:21;;;;;;;10.80;7.30;;;4.90;99.90;;;;;;6275111;22;20231;-78
2023/01/03 04:27:47;;;;;;;9.05;5.95;;;4.90;99.90;;;;;;6301666;22;20004;-78
2023/01/03 04:30:13;;;;;;;10.10;6.43;;;4.90;99.90;;;;;;6275514;22;20023;-78
2023/01/03 04:32:39;;;;;;;9.23;5.93;;;4.80;99.90;;;;;;6275487;22;20504;-78
2023/01/03 04:35:05;;;;;;;6.75;5.25;;;4.80;99.90;;;;;;6275255;22;20092;-78
2023/01/03 04:37:31;;;;;;;9.82;5.45;;;4.70;99.90;;;;;;6303080;22;20007;-79
2023/01/03 04:39:57;;;;;;;8.88;5.10;;;4.60;99.90;;;;;;6273558;22;20450;-78
2023/01/03 04:45:07;;;;;;;9.40;5.70;;;4.50;99.90;;;;;;6275107;22;20448;-78
2023/01/03 04:47:33;;;;;;;9.48;6.28;;;4.40;99.90;;;;;;6249903;22;20003;-78
2023/01/03 04:49:59;;;;;;;7.35;5.25;;;4.30;99.90;;;;;;6249692;22;20049;-78
2023/01/03 04:52:24;;;;;;;9.20;5.53;;;4.30;99.90;;;;;;6274567;22;20084;-78
2023/01/03 04:54:50;;;;;;;7.82;6.30;;;4.20;99.90;;;;;;6275122;22;20331;-78
2023/01/03 04:57:16;;;;;;;9.68;5.90;;;4.20;99.90;;;;;;6303204;22;20007;-78
2023/01/03 04:59:42;;;;;;;9.95;5.38;;;4.10;99.90;;;;;;6274817;22;20014;-78
2023/01/03 05:02:07;;;;;;;8.13;5.55;;;4.10;99.90;;;;;;6275252;22;20453;-78
2023/01/03 05:04:33;;;;;;;8.23;5.63;;;4.00;99.90;;;;;;6275409;22;20367;-78
2023/01/03 05:06:59;;;;;;;7.72;5.20;;;4.00;99.90;;;;;;6274056;22;20013;-78
2023/01/03 05:09:27;;;;;;;9.07;6.22;;;3.90;99.90;;;;;;6275162;22;20014;-78
2023/01/03 05:11:53;;;;;;;7.53;4.75;;;3.90;99.90;;;;;;6274656;22;20022;-78
2023/01/03 05:14:18;;;;;;;7.25;5.75;;;3.90;99.90;;;;;;6302420;22;20007;-78
2023/01/03 05:16:44;;;;;;;8.40;5.97;;;3.80;99.90;;;;;;6301686;22;20340;-78
2023/01/03 05:19:10;;;;;;;9.75;5.78;;;3.70;99.90;;;;;;6274507;22;20327;-78
2023/01/03 05:27:05;;;;;;;6.68;4.72;;;3.60;99.90;;;;;;6302404;22;20469;-78
2023/01/03 05:29:33;;;;;;;4.50;2.85;;;3.60;99.90;;;;;;6249394;22;20029;-78
2023/01/03 05:31:58;;;;;;;9.32;5.18;;;3.60;99.90;;;;;;6274855;22;20015;-77
2023/01/03 05:34:24;;;;;;;5.78;4.13;;;3.60;99.90;;;;;;6275215;22;20014;-78
2023/01/03 05:36:50;;;;;;;9.90;5.00;;;3.50;99.90;;;;;;6274501;22;20098;-78
2023/01/03 05:39:16;;;;;;;6.43;4.45;;;3.40;99.90;;;;;;6301050;22;20066;-78
2023/01/03 05:41:59;;;;;;;7.78;4.38;;;3.50;99.90;;;;;;6275000;22;20014;-78
2023/01/03 05:44:29;;;;;;;6.32;3.60;;;3.50;99.90;;;;;;6275487;22;20012;-78
2023/01/03 05:46:56;;;;;;;6.13;4.05;;;3.40;99.90;;;;;;6302464;22;20075;-78
2023/01/03 05:49:21;;;;;;;5.65;3.60;;;3.40;99.90;;;;;;6249512;22;20007;-78
2023/01/03 05:51:47;;;;;;;5.53;3.35;;;3.40;99.90;;;;;;6302243;22;20343;-78
2023/01/03 05:54:14;;;;;;;6.22;3.67;;;3.40;99.90;;;;;;6275118;22;20011;-78
2023/01/03 05:56:40;;;;;;;6.57;3.92;;;3.30;99.90;;;;;;6249930;22;20086;-78
2023/01/03 05:59:08;;;;;;;4.82;2.90;;;3.20;99.90;;;;;;6274562;22;20037;-78
2023/01/03 06:01:34;;;;;;;6.55;3.58;;;3.20;99.90;;;;;;6275159;22;20435;-77
2023/01/03 06:04:00;;;;;;;5.32;3.28;;;3.30;99.90;;;;;;6300549;22;20011;-78
2023/01/03 06:06:26;;;;;;;4.60;3.17;;;3.20;99.90;;;;;;6274679;22;20475;-78
2023/01/03 06:08:52;;;;;;;5.55;3.42;;;3.20;99.90;;;;;;6302681;22;20011;-78
2023/01/03 06:11:18;;;;;;;6.18;2.80;;;3.20;99.90;;;;;;6249194;22;20015;-78
2023/01/03 06:13:44;;;;;;;4.82;2.22;;;3.30;99.90;;;;;;6274965;22;20181;-78
2023/01/03 06:19:01;;;;;;;7.47;3.20;;;3.30;99.90;;;;;;6301858;22;20461;-78
2023/01/03 06:21:27;;;;;;;4.28;2.80;;;3.10;99.90;;;;;;6248813;22;20474;-78
2023/01/03 06:23:52;;;;;;;4.25;2.40;;;3.20;99.90;;;;;;6249240;22;20007;-78
2023/01/03 06:26:21;;;;;;;5.70;2.33;;;3.20;99.90;;;;;;6275066;22;20022;-78
2023/01/03 06:28:47;;;;;;;5.30;2.45;;;3.20;99.90;;;;;;6301688;22;20003;-78
2023/01/03 06:31:13;;;;;;;4.97;2.70;;;3.30;99.90;;;;;;6276595;22;20048;-78
2023/01/03 06:33:39;;;;;;;6.60;2.80;;;3.20;99.90;;;;;;6275026;22;20068;-78
2023/01/03 06:36:08;;;;;;;5.63;2.70;;;3.20;99.90;;;;;;6276063;22;20007;-78
2023/01/03 06:38:34;;;;;;;3.85;2.28;;;3.30;99.90;;;;;;6304730;22;20007;-78
2023/01/03 06:41:01;;;;;;;7.38;2.72;;;3.30;99.90;;;;;;6303855;22;20034;-78
2023/01/03 06:43:27;;;;;;;5.00;2.78;;;3.40;99.90;;;;;;6251668;22;20520;-78
2023/01/03 06:54:09;;;;;;;6.20;2.42;;;3.60;99.90;;;;;;6251005;22;20026;-78
2023/01/03 06:56:35;;;;;;;5.93;2.88;;;3.60;99.90;;;;;;6210743;22;20480;-78
2023/01/03 06:59:01;;;;;;;5.20;3.13;;;3.50;99.90;;;;;;6207423;22;20018;-78
2023/01/03 07:01:29;;;;;;;5.05;2.70;;;3.50;99.90;;;;;;6244462;22;20011;-78
2023/01/03 07:03:55;;;;;;;5.15;2.75;;;3.60;99.90;;;;;;6270074;22;20010;-78
2023/01/03 07:06:23;;;;;;;4.90;2.22;;;3.60;99.90;;;;;;6268650;22;20011;-78
2023/01/03 07:08:49;;;;;;;3.67;2.00;;;3.60;99.90;;;;;;6241741;22;20007;-78
2023/01/03 07:11:14;;;;;;;5.78;2.55;;;3.60;99.90;;;;;;6240841;22;20535;-78
2023/01/03 07:13:58;;;;;;;5.95;2.67;;;3.60;99.90;;;;;;6238675;22;20408;-78
2023/01/03 07:16:35;;;;;;;4.85;2.50;;;3.50;99.90;;;;;;6242702;22;20019;-78
2023/01/03 07:19:03;;;;;;;4.70;2.10;;;3.60;99.90;;;;;;6267302;22;20027;-78
2023/01/03 07:21:30;;;;;;;4.28;2.42;;;3.50;99.90;;;;;;6241005;22;20080;-78
2023/01/03 07:23:57;;;;;;;4.00;2.22;;;3.50;99.90;;;;;;6214089;22;20038;-79
2023/01/03 07:26:24;;;;;;;5.30;2.58;;;3.50;99.90;;;;;;6242439;22;20799;-78
2023/01/03 07:28:50;;;;;;;5.32;3.05;;;3.40;99.90;;;;;;6238193;22;20011;-78
2023/01/03 07:31:16;;;;;;;6.18;3.03;;;3.60;99.90;;;;;;6268848;22;20026;-79
2023/01/03 07:33:43;;;;;;;7.88;3.08;;;3.60;99.90;;;;;;6269285;22;20332;-78
2023/01/03 07:36:12;;;;;;;5.05;3.10;;;3.50;99.90;;;;;;6241754;22;20015;-78
2023/01/03 07:38:39;;;;;;;5.07;2.38;;;3.50;99.90;;;;;;6241035;22;20007;-79
2023/01/03 07:41:07;;;;;;;5.25;2.53;;;3.50;99.90;;;;;;6239225;22;20515;-78
2023/01/03 07:43:36;;;;;;;4.97;2.20;;;3.50;99.90;;;;;;6240244;22;20011;-78
2023/01/03 07:46:18;;;;;;;5.37;2.97;;;3.60;99.90;;;;;;6266667;22;20016;-79
2023/01/03 07:48:47;;;;;;;5.68;2.42;;;3.70;99.90;;;;;;6267715;22;20241;-77
2023/01/03 07:51:15;;;;;;;6.03;3.38;;;3.70;99.90;;;;;;6267679;22;20022;-79
2023/01/03 07:53:41;;;;;;;4.82;2.65;;;3.70;99.90;;;;;;6234526;22;20674;-78
2023/01/03 07:56:10;;;;;;;5.28;2.72;;;3.70;99.90;;;;;;6240219;22;20375;-77
2023/01/03 07:58:36;;;;;;;6.13;2.70;;;3.80;99.90;;;;;;6211133;22;20011;-78
2023/01/03 08:01:11;;;;;;;5.03;3.28;;;3.80;99.90;;;;;;6235727;22;20166;-79
2023/01/03 08:03:38;;;;;;;4.05;2.70;;;3.90;99.90;;;;;;6213225;22;20783;-77
2023/01/03 08:06:15;;;;;;;6.05;3.08;;;3.90;99.90;;;;;;6265034;22;20018;-79
2023/01/03 08:08:42;;;;;;;4.85;3.10;;;4.00;99.90;;;;;;6266785;22;20007;-78
2023/01/03 08:13:57;;;;;;;3.63;2.22;;;4.20;99.90;;;;;;6219566;22;20416;-78
2023/01/03 08:16:22;;;;;;;3.58;2.50;;;4.20;99.90;;;;;;6264031;22;20003;-78
2023/01/03 08:18:48;;;;;;;3.08;1.63;;;4.20;99.90;;;;;;6236272;22;20060;-78
2023/01/03 08:21:14;;;;;;;6.18;2.67;;;4.20;99.90;;;;;;6263466;22;20041;-78
2023/01/03 08:23:41;;;;;;;4.88;3.05;;;4.40;99.90;;;;;;6237337;22;20873;-78
2023/01/03 08:26:11;;;;;;;5.10;2.92;;;4.30;99.90;;;;;;6264764;22;20003;-77
2023/01/03 08:28:37;;;;;;;4.78;2.60;;;4.40;99.90;;;;;;6238908;22;20004;-78
2023/01/03 08:31:14;;;;;;;5.20;3.17;;;4.40;99.90;;;;;;6211794;22;20018;-77
2023/01/03 08:33:55;;;;;;;5.22;3.13;;;4.50;99.90;;;;;;6211108;22;20039;-78
2023/01/03 08:36:22;;;;;;;5.88;4.00;;;4.70;99.90;;;;;;6238933;22;19995;-77
2023/01/03 08:38:55;;;;;;;5.35;3.25;;;4.60;99.90;;;;;;6236496;22;20451;-78
2023/01/03 08:41:25;;;;;;;6.10;3.85;;;4.70;99.90;;;;;;6211928;22;20014;-78
2023/01/03 08:43:51;;;;;;;5.90;3.88;;;4.80;99.90;;;;;;6208837;22;20380;-78
2023/01/03 08:46:18;;;;;;;6.38;3.75;;;4.80;99.90;;;;;;6264381;22;20098;-79
2023/01/03 08:48:44;;;;;;;7.35;3.33;;;4.80;99.90;;;;;;6213605;22;20675;-78
2023/01/03 08:51:10;;;;;;;6.53;3.67;;;4.90;99.90;;;;;;6242180;22;20519;-78
2023/01/03 08:53:36;;;;;;;5.78;3.15;;;5.00;99.90;;;;;;6269033;22;20022;-78
2023/01/03 08:56:01;;;;;;;5.97;2.38;;;5.00;99.90;;;;;;6241628;22;20015;-79
2023/01/03 08:58:28;;;;;;;5.63;3.25;;;5.10;99.90;;;;;;6231084;22;20456;-79
2023/01/03 09:00:53;;;;;;;8.18;3.80;;;5.10;99.90;;;;;;6271010;22;20305;-78
2023/01/03 09:03:19;;;;;;;5.47;3.10;;;5.20;99.90;;;;;;6242322;22;20114;-78
2023/01/03 09:05:45;;;;;;;5.97;3.08;;;5.20;99.90;;;;;;6218193;22;20008;-78
2023/01/03 09:08:11;;;;;;;4.70;2.83;;;5.30;99.90;;;;;;6244075;22;20007;-78
2023/01/03 09:10:38;;;;;;;6.40;2.78;;;5.40;99.90;;;;;;6240611;22;20496;-78
2023/01/03 09:13:04;;;;;;;4.60;2.05;;;5.40;99.90;;;;;;6213566;22;20018;-77
2023/01/03 09:15:30;;;;;;;5.80;2.38;;;5.50;99.90;;;;;;6237463;22;20449;-77
2023/01/03 09:17:56;;;;;;;6.63;3.13;;;5.50;99.90;;;;;;6239183;22;20983;-78
2023/01/03 09:20:21;;;;;;;4.05;2.10;;;5.60;99.90;;;;;;6263893;22;20061;-78
2023/01/03 09:22:47;;;;;;;3.40;2.25;;;5.70;99.90;;;;;;6241084;22;20015;-78
2023/01/03 09:25:14;;;;;;;4.55;2.60;;;5.70;99.90;;;;;;6266541;22;20305;-78
2023/01/03 09:27:44;;;;;;;4.28;2.85;;;5.70;99.90;;;;;;6239999;22;20427;-78
2023/01/03 09:30:12;;;;;;;6.63;4.03;;;5.70;99.90;;;;;;6240162;22;20037;-77
2023/01/03 09:32:38;;;;;;;7.40;4.53;;;5.70;99.90;;;;;;6241605;22;20007;-77
2023/01/03 09:35:04;;;;;;;7.43;4.60;;;5.70;99.90;;;;;;6266968;22;20158;-78
2023/01/03 09:37:29;;;;;;;7.35;4.72;;;5.80;99.90;;;;;;6240081;22;20094;-78
2023/01/03 09:39:55;;;;;;;7.65;4.53;;;5.80;99.90;;;;;;6236525;22;20424;-78
2023/01/03 09:45:20;;;;;;;7.53;4.55;;;5.90;99.90;;;;;;6265370;22;20038;-79
2023/01/03 09:47:46;;;;;;;8.32;4.97;;;5.90;99.90;;;;;;6239623;22;20015;-78
2023/01/03 09:50:19;;;;;;;6.97;5.25;;;6.00;99.90;;;;;;6237162;22;20144;-78
2023/01/03 10:05:08;;;;;;;11.60;6.53;;;6.10;99.90;;;;;;6254095;22;20023;-78
2023/01/03 10:07:59;;;;;;;9.07;6.22;;;6.10;99.90;;;;;;6245975;22;20018;-78
2023/01/03 10:10:50;;;;;;;7.15;5.55;;;6.20;99.90;;;;;;6240214;22;20013;-78
2023/01/03 10:13:16;;;;;;;;;;;6.20;99.90;;;;;;6243768;22;20011;-78
2023/01/03 10:15:44;;;;;;;10.50;6.80;;;6.30;99.90;;;;;;6245666;22;19907;-78
2023/01/03 10:18:36;;;;;;;8.93;6.57;;;6.30;99.90;;;;;;6218849;22;20007;-78
2023/01/03 10:21:30;;;;;;;7.50;5.03;;;6.30;99.90;;;;;;6242795;22;20017;-78
2023/01/03 10:23:56;;;;;;;7.95;4.88;;;6.40;99.90;;;;;;6244752;22;20003;-78
2023/01/03 10:26:24;;;;;;;8.15;5.05;;;6.50;99.90;;;;;;6242335;22;20011;-78
2023/01/03 10:28:50;;;;;;;8.90;5.45;;;6.50;99.90;;;;;;6273449;22;20937;-78
2023/01/03 10:31:52;;;;;;;8.05;4.18;;;6.50;99.90;;;;;;6267659;22;20011;-79
2023/01/03 10:34:18;;;;;;;6.15;4.22;;;6.50;99.90;;;;;;6233738;22;20452;-76
2023/01/03 10:36:44;;;;;;;8.48;4.75;;;6.60;99.90;;;;;;6214798;22;20113;-78
2023/01/03 10:39:10;;;;;;;7.40;4.97;;;6.50;99.90;;;;;;6241189;22;20733;-78
2023/01/03 10:41:46;;;;;;;7.72;4.80;;;6.60;99.90;;;;;;6266611;22;20007;-78
2023/01/03 10:44:27;;;;;;;7.88;4.70;;;6.60;99.90;;;;;;6239675;22;20063;-78
2023/01/03 10:46:57;;;;;;;9.93;5.68;;;6.60;99.90;;;;;;6243194;22;20019;-78
2023/01/03 10:49:26;;;;;;;8.50;4.95;;;6.70;99.90;;;;;;6268248;22;20571;-78
2023/01/03 10:52:10;;;;;;;11.93;5.60;;;6.70;99.90;;;;;;6216369;22;20030;-78
2023/01/03 10:54:39;;;;;;;10.57;5.07;;;6.70;99.90;;;;;;6240430;22;20015;-77
2023/01/03 10:57:05;;;;;;;8.35;5.18;;;6.80;99.90;;;;;;6241964;22;20006;-78
2023/01/03 10:59:31;;;;;;;5.25;3.35;;;6.80;99.90;;;;;;6212946;22;20515;-78
2023/01/03 11:02:13;;;;;;;7.47;4.53;;;6.80;99.90;;;;;;6243188;22;20015;-79
2023/01/03 11:04:40;;;;;;;11.40;4.55;;;6.90;99.90;;;;;;6239847;22;20010;-78
2023/01/03 11:07:11;;;;;;;7.18;4.47;;;6.90;99.90;;;;;;6247261;22;20007;-79
2023/01/03 11:09:46;;;;;;;10.20;5.43;;;6.90;99.90;;;;;;6213086;22;20018;-78
2023/01/03 11:12:27;;;;;;;9.07;4.80;;;6.90;99.90;;;;;;6216738;22;20485;-80
2023/01/03 11:14:55;;;;;;;9.45;5.47;;;6.90;99.90;;;;;;6238068;22;20007;-78
2023/01/03 11:17:22;;;;;;;10.93;5.65;;;6.90;99.90;;;;;;6242022;22;20013;-77
2023/01/03 11:19:50;;;;;;;8.20;4.35;;;6.90;99.90;;;;;;6238739;22;20007;-79
2023/01/03 11:22:37;;;;;;;8.25;4.57;;;6.90;99.90;;;;;;6242733;22;20011;-78
2023/01/03 11:25:06;;;;;;;6.90;4.30;;;7.00;99.90;;;;;;6212219;22;20438;-78
2023/01/03 11:28:10;;;;;;;8.30;3.53;;;7.00;99.90;;;;;;6217881;22;20011;-78
2023/01/03 11:30:35;;;;;;;5.38;2.83;;;7.10;99.90;;;;;;6237819;22;20015;-79
2023/01/03 11:33:36;;;;;;;12.80;4.38;;;7.10;99.90;;;;;;6226334;22;20453;-78
2023/01/03 11:36:28;;;;;;;;;;;7.20;99.90;;;;;;6243430;22;20006;-77
2023/01/03 11:39:13;;;;;;;9.48;4.05;;;7.30;99.90;;;;;;6191201;22;20280;-78
2023/01/03 11:41:54;;;;;;;7.60;3.97;;;7.30;99.90;;;;;;6241915;22;20063;-78
2023/01/03 11:44:54;;;;;;;8.43;4.32;;;7.30;99.90;;;;;;6216516;22;20126;-78
2023/01/03 11:47:39;;;;;;;6.82;4.00;;;7.30;99.90;;;;;;6218042;22;20011;-78
2023/01/03 11:50:20;;;;;;;7.10;4.15;;;7.30;99.90;;;;;;6213407;22;20770;-79
2023/01/03 11:53:02;;;;;;;5.90;4.32;;;7.40;99.90;;;;;;6216483;22;20477;-79
2023/01/03 11:56:07;;;;;;;5.45;3.35;;;7.40;99.90;;;;;;6240979;22;20392;-79
2023/01/03 11:58:41;;;;;;;9.55;4.03;;;7.40;99.90;;;;;;6245417;22;20081;-78
2023/01/03 12:01:35;;;;;;;6.95;4.38;;;7.40;99.90;;;;;;6236608;22;20022;-78
2023/01/03 12:04:18;;;;;;;7.65;4.85;;;7.40;99.90;;;;;;6220439;22;20396;-79
2023/01/03 12:06:56;;;;;;;6.00;3.97;;;7.40;99.90;;;;;;6244495;22;20015;-79
2023/01/03 12:09:31;;;;;;;7.97;5.47;;;7.40;99.90;;;;;;6272342;22;20007;-80
2023/01/03 12:12:22;;;;;;;8.52;4.35;;;7.50;99.90;;;;;;6243715;22;20047;-78
2023/01/03 12:14:52;;;;;;;5.80;4.47;;;7.40;99.90;;;;;;6248113;22;19991;-80
2023/01/03 12:17:28;;;;;;;11.30;5.35;;;7.50;99.90;;;;;;6243285;22;20007;-78
2023/01/03 12:19:59;;;;;;;6.68;4.32;;;7.50;99.90;;;;;;6271285;22;20011;-78
2023/01/03 12:22:40;;;;;;;6.47;3.97;;;7.50;99.90;;;;;;6268997;22;20356;-79
2023/01/03 12:25:17;;;;;;;6.05;3.47;;;7.60;99.90;;;;;;6299989;22;20014;-80
2023/01/03 12:28:00;;;;;;;5.43;3.25;;;7.60;99.90;;;;;;6245745;22;20011;-79
2023/01/03 12:30:36;;;;;;;6.38;3.58;;;7.60;99.90;;;;;;6298371;22;20011;-79
2023/01/03 12:33:16;;;;;;;5.60;2.95;;;7.60;99.90;;;;;;6256339;22;20023;-79
2023/01/03 12:35:49;;;;;;;5.40;3.40;;;7.60;99.90;;;;;;6245180;22;20018;-79
2023/01/03 12:38:19;;;;;;;5.40;3.45;;;7.60;99.90;;;;;;6271359;22;20017;-79
2023/01/03 12:40:51;;;;;;;5.10;2.80;;;7.60;99.90;;;;;;6246563;22;20071;-78
2023/01/03 12:43:32;;;;;;;6.38;3.35;;;7.60;99.90;;;;;;6260316;22;20408;-80
2023/01/03 12:46:15;;;;;;;6.68;3.05;;;7.60;99.90;;;;;;6271139;22;20525;-79
2023/01/03 12:49:11;;;;;;;7.00;3.65;;;7.60;99.90;;;;;;6298351;22;20362;-80
2023/01/03 12:51:37;;;;;;;7.03;3.95;;;7.70;99.90;;;;;;6270449;22;20046;-79
2023/01/03 12:54:18;;;;;;;5.03;3.15;;;7.70;99.90;;;;;;6269409;22;20491;-79
2023/01/03 12:57:07;;;;;;;5.65;3.28;;;7.70;99.90;;;;;;6271125;22;20066;-79
2023/01/03 12:59:55;;;;;;;7.15;2.88;;;7.70;99.90;;;;;;6271867;22;20037;-79
2023/01/03 13:02:46;;;;;;;4.18;2.70;;;7.70;99.90;;;;;;6269244;22;20007;-79
2023/01/03 13:05:24;;;;;;;5.00;2.33;;;7.70;99.90;;;;;;6298888;22;20031;-80
2023/01/03 13:08:15;;;;;;;6.00;1.98;;;7.70;99.90;;;;;;6271992;22;20324;-79
2023/01/03 13:10:46;;;;;;;5.70;2.05;;;7.70;99.90;;;;;;6245294;22;20015;-79
2023/01/03 13:13:18;;;;;;;4.68;2.35;;;7.70;99.90;;;;;;6269571;22;20065;-79
2023/01/03 13:15:45;;;;;;;5.80;2.78;;;7.70;99.90;;;;;;6270345;22;20008;-79
2023/01/03 13:18:29;;;;;;;3.25;2.22;;;7.80;99.90;;;;;;6244432;22;20514;-79
2023/01/03 13:20:55;;;;;;;3.40;2.67;;;7.70;99.90;;;;;;6270103;22;20479;-79
2023/01/03 13:23:40;;;;;;;6.07;4.07;;;7.80;99.90;;;;;;6242977;22;20106;-79
2023/01/03 13:26:18;;;;;;;7.65;3.70;;;7.80;99.90;;;;;;6243589;22;20327;-79
2023/01/03 13:28:44;;;;;;;4.15;2.75;;;7.90;99.90;;;;;;6268252;22;20014;-79
2023/01/03 13:31:13;;;;;;;8.10;4.70;;;7.90;99.90;;;;;;6259361;22;20022;-80
2023/01/03 13:34:08;;;;;;;5.38;3.40;;;7.90;99.90;;;;;;6277293;22;20000;-82
2023/01/03 13:37:05;;;;;;;9.88;3.90;;;8.00;99.90;;;;;;6270352;22;20022;-78
2023/01/03 13:39:39;;;;;;;7.22;4.18;;;8.00;99.90;;;;;;6245260;22;20078;-79
2023/01/03 13:42:17;;;;;;;7.00;4.28;;;8.00;99.90;;;;;;6241893;22;20065;-78
2023/01/03 13:44:43;;;;;;;9.60;4.32;;;8.10;99.90;;;;;;6241223;22;20620;-77
2023/01/03 13:47:32;;;;;;;9.15;4.47;;;8.00;99.90;;;;;;6239224;22;20005;-78
2023/01/03 13:49:58;;;;;;;5.68;3.10;;;8.00;99.90;;;;;;6237068;22;20086;-79
2023/01/03 13:53:01;;;;;;;4.70;2.72;;;8.00;99.90;;;;;;6238257;22;20019;-78
2023/01/03 13:55:46;;;;;;;5.57;2.20;;;8.00;99.90;;;;;;6141490;23;20035;-78
2023/01/03 13:58:26;;;;;;;5.35;1.67;;;7.90;99.90;;;;;;6138212;23;20020;-78
2023/01/03 14:00:55;;;;;;;4.40;1.80;;;8.00;99.90;;;;;;6137256;23;20029;-78
2023/01/03 14:03:37;;;;;;;4.43;1.70;;;7.90;99.90;;;;;;6116128;23;20075;-78
2023/01/03 14:06:22;;;;;;;4.25;1.42;;;7.90;99.90;;;;;;6088920;23;20024;-80
2023/01/03 14:09:21;;;;;;;4.40;1.85;;;7.90;99.90;;;;;;6091372;23;20013;-77
2023/01/03 14:12:11;;;;;;;6.70;2.77;;;8.00;99.90;;;;;;6112610;23;20103;-77
2023/01/03 14:14:39;;;;;;;4.43;2.30;;;8.10;99.90;;;;;;6093670;23;20005;-78
2023/01/03 14:17:16;;;;;;;6.03;2.28;;;8.10;99.90;;;;;;6086847;23;20019;-79